sensor_id;sensor_type;location;lat;lon;timestamp;P1;durP1;ratioP1;P2;durP2;ratioP2
43048;SDS011;28673;44.412;11.918;2023-01-08T00:02:23;68.20;;;34.75;;
43048;SDS011;28673;44.412;11.918;2023-01-08T00:04:49;64.88;;;33.55;;
43048;SDS011;28673;44.412;11.918;2023-01-08T00:07:15;65.82;;;33.65;;
43048;SDS011;28673;44.412;11.918;2023-01-08T00:09:41;66.28;;;31.77;;
43048;SDS011;28673;44.412;11.918;2023-01-08T00:12:07;57.28;;;31.80;;
43048;SDS011;28673;44.412;11.918;2023-01-08T00:14:33;52.33;;;30.65;;
43048;SDS011;28673;44.412;11.918;2023-01-08T00:16:59;62.25;;;31.58;;
43048;SDS011;28673;44.412;11.918;2023-01-08T00:19:26;61.70;;;31.58;;
43048;SDS011;28673;44.412;11.918;2023-01-08T00:21:53;64.97;;;31.02;;
43048;SDS011;28673;44.412;11.918;2023-01-08T00:24:18;59.55;;;29.17;;
43048;SDS011;28673;44.412;11.918;2023-01-08T00:26:45;55.42;;;28.55;;
43048;SDS011;28673;44.412;11.918;2023-01-08T00:29:10;60.30;;;30.67;;
43048;SDS011;28673;44.412;11.918;2023-01-08T00:31:36;57.67;;;29.85;;
43048;SDS011;28673;44.412;11.918;2023-01-08T00:34:02;58.13;;;30.85;;
43048;SDS011;28673;44.412;11.918;2023-01-08T00:36:28;63.42;;;32.58;;
43048;SDS011;28673;44.412;11.918;2023-01-08T00:38:55;58.83;;;31.23;;
43048;SDS011;28673;44.412;11.918;2023-01-08T00:41:23;59.88;;;30.83;;
43048;SDS011;28673;44.412;11.918;2023-01-08T00:43:49;66.55;;;33.00;;
43048;SDS011;28673;44.412;11.918;2023-01-08T00:46:15;55.30;;;29.02;;
43048;SDS011;28673;44.412;11.918;2023-01-08T00:48:41;54.13;;;26.30;;
43048;SDS011;28673;44.412;11.918;2023-01-08T00:51:07;59.25;;;32.53;;
43048;SDS011;28673;44.412;11.918;2023-01-08T00:53:34;60.97;;;30.80;;
43048;SDS011;28673;44.412;11.918;2023-01-08T00:56:03;52.88;;;28.10;;
43048;SDS011;28673;44.412;11.918;2023-01-08T01:00:59;59.22;;;27.88;;
43048;SDS011;28673;44.412;11.918;2023-01-08T01:03:25;49.50;;;25.67;;
43048;SDS011;28673;44.412;11.918;2023-01-08T01:06:04;61.08;;;31.58;;
43048;SDS011;28673;44.412;11.918;2023-01-08T01:08:31;51.45;;;28.70;;
43048;SDS011;28673;44.412;11.918;2023-01-08T01:10:58;62.33;;;28.90;;
43048;SDS011;28673;44.412;11.918;2023-01-08T01:13:24;64.00;;;31.73;;
43048;SDS011;28673;44.412;11.918;2023-01-08T01:15:59;67.00;;;31.65;;
43048;SDS011;28673;44.412;11.918;2023-01-08T01:18:26;65.68;;;32.97;;
43048;SDS011;28673;44.412;11.918;2023-01-08T01:20:53;61.33;;;29.55;;
43048;SDS011;28673;44.412;11.918;2023-01-08T01:23:19;60.10;;;30.40;;
43048;SDS011;28673;44.412;11.918;2023-01-08T01:25:45;70.70;;;33.85;;
43048;SDS011;28673;44.412;11.918;2023-01-08T01:28:11;63.50;;;32.15;;
43048;SDS011;28673;44.412;11.918;2023-01-08T01:30:37;48.92;;;29.08;;
43048;SDS011;28673;44.412;11.918;2023-01-08T01:33:03;56.70;;;28.45;;
43048;SDS011;28673;44.412;11.918;2023-01-08T01:35:29;57.33;;;31.05;;
43048;SDS011;28673;44.412;11.918;2023-01-08T01:37:55;62.65;;;31.02;;
43048;SDS011;28673;44.412;11.918;2023-01-08T01:40:20;65.68;;;31.88;;
43048;SDS011;28673;44.412;11.918;2023-01-08T01:42:46;60.88;;;29.55;;
43048;SDS011;28673;44.412;11.918;2023-01-08T01:45:19;61.58;;;31.63;;
43048;SDS011;28673;44.412;11.918;2023-01-08T01:47:52;57.03;;;28.95;;
43048;SDS011;28673;44.412;11.918;2023-01-08T01:50:35;53.63;;;28.98;;
43048;SDS011;28673;44.412;11.918;2023-01-08T01:53:16;63.63;;;28.67;;
43048;SDS011;28673;44.412;11.918;2023-01-08T01:55:47;57.05;;;28.55;;
43048;SDS011;28673;44.412;11.918;2023-01-08T01:58:15;50.83;;;27.67;;
43048;SDS011;28673;44.412;11.918;2023-01-08T02:00:41;48.38;;;27.58;;
43048;SDS011;28673;44.412;11.918;2023-01-08T02:03:11;58.05;;;30.05;;
43048;SDS011;28673;44.412;11.918;2023-01-08T02:05:49;63.92;;;32.45;;
43048;SDS011;28673;44.412;11.918;2023-01-08T02:08:41;57.45;;;31.63;;
43048;SDS011;28673;44.412;11.918;2023-01-08T02:11:16;57.17;;;29.08;;
43048;SDS011;28673;44.412;11.918;2023-01-08T02:13:58;62.28;;;29.58;;
43048;SDS011;28673;44.412;11.918;2023-01-08T02:19:48;57.15;;;28.85;;
43048;SDS011;28673;44.412;11.918;2023-01-08T02:22:23;57.77;;;30.83;;
43048;SDS011;28673;44.412;11.918;2023-01-08T02:25:07;58.88;;;32.35;;
43048;SDS011;28673;44.412;11.918;2023-01-08T02:27:41;69.10;;;32.10;;
43048;SDS011;28673;44.412;11.918;2023-01-08T02:30:09;55.45;;;29.40;;
43048;SDS011;28673;44.412;11.918;2023-01-08T02:32:36;62.50;;;31.05;;
43048;SDS011;28673;44.412;11.918;2023-01-08T02:35:04;60.80;;;32.03;;
43048;SDS011;28673;44.412;11.918;2023-01-08T02:37:31;65.57;;;32.20;;
43048;SDS011;28673;44.412;11.918;2023-01-08T02:42:38;57.13;;;31.58;;
43048;SDS011;28673;44.412;11.918;2023-01-08T02:47:50;59.50;;;31.92;;
43048;SDS011;28673;44.412;11.918;2023-01-08T02:50:24;58.33;;;29.73;;
43048;SDS011;28673;44.412;11.918;2023-01-08T02:52:57;55.95;;;31.08;;
43048;SDS011;28673;44.412;11.918;2023-01-08T02:57:52;55.53;;;27.38;;
43048;SDS011;28673;44.412;11.918;2023-01-08T03:00:19;56.47;;;28.70;;
43048;SDS011;28673;44.412;11.918;2023-01-08T03:02:45;58.53;;;28.58;;
43048;SDS011;28673;44.412;11.918;2023-01-08T03:05:20;57.85;;;29.55;;
43048;SDS011;28673;44.412;11.918;2023-01-08T03:07:50;48.33;;;29.58;;
43048;SDS011;28673;44.412;11.918;2023-01-08T03:10:18;49.08;;;28.15;;
43048;SDS011;28673;44.412;11.918;2023-01-08T03:12:55;47.53;;;26.48;;
43048;SDS011;28673;44.412;11.918;2023-01-08T03:15:33;50.90;;;26.10;;
43048;SDS011;28673;44.412;11.918;2023-01-08T03:18:04;47.25;;;27.55;;
43048;SDS011;28673;44.412;11.918;2023-01-08T03:20:34;51.30;;;26.08;;
43048;SDS011;28673;44.412;11.918;2023-01-08T03:23:03;50.83;;;26.90;;
43048;SDS011;28673;44.412;11.918;2023-01-08T03:25:33;49.08;;;27.10;;
43048;SDS011;28673;44.412;11.918;2023-01-08T03:28:04;50.63;;;27.27;;
43048;SDS011;28673;44.412;11.918;2023-01-08T03:30:34;52.70;;;27.15;;
43048;SDS011;28673;44.412;11.918;2023-01-08T03:33:03;46.50;;;25.83;;
43048;SDS011;28673;44.412;11.918;2023-01-08T03:35:31;55.22;;;28.20;;
43048;SDS011;28673;44.412;11.918;2023-01-08T03:38:06;48.97;;;26.85;;
43048;SDS011;28673;44.412;11.918;2023-01-08T03:40:40;54.13;;;27.90;;
43048;SDS011;28673;44.412;11.918;2023-01-08T03:43:10;47.80;;;27.15;;
43048;SDS011;28673;44.412;11.918;2023-01-08T03:45:36;58.03;;;29.65;;
43048;SDS011;28673;44.412;11.918;2023-01-08T03:48:07;54.53;;;28.58;;
43048;SDS011;28673;44.412;11.918;2023-01-08T03:50:34;50.50;;;28.50;;
43048;SDS011;28673;44.412;11.918;2023-01-08T03:53:00;54.17;;;25.83;;
43048;SDS011;28673;44.412;11.918;2023-01-08T03:55:26;46.55;;;26.02;;
43048;SDS011;28673;44.412;11.918;2023-01-08T03:57:52;56.00;;;30.52;;
43048;SDS011;28673;44.412;11.918;2023-01-08T04:00:17;46.75;;;26.77;;
43048;SDS011;28673;44.412;11.918;2023-01-08T04:02:43;50.25;;;28.38;;
43048;SDS011;28673;44.412;11.918;2023-01-08T04:05:09;49.92;;;28.23;;
43048;SDS011;28673;44.412;11.918;2023-01-08T04:07:36;54.47;;;28.83;;
43048;SDS011;28673;44.412;11.918;2023-01-08T04:10:02;56.13;;;28.73;;
43048;SDS011;28673;44.412;11.918;2023-01-08T04:12:28;53.28;;;29.73;;
43048;SDS011;28673;44.412;11.918;2023-01-08T04:14:54;61.97;;;31.73;;
43048;SDS011;28673;44.412;11.918;2023-01-08T04:17:20;62.55;;;33.88;;
43048;SDS011;28673;44.412;11.918;2023-01-08T04:19:46;63.50;;;31.77;;
43048;SDS011;28673;44.412;11.918;2023-01-08T04:22:11;55.67;;;30.77;;
43048;SDS011;28673;44.412;11.918;2023-01-08T04:24:37;65.30;;;33.97;;
43048;SDS011;28673;44.412;11.918;2023-01-08T04:27:03;62.30;;;32.85;;
43048;SDS011;28673;44.412;11.918;2023-01-08T04:29:29;57.90;;;35.22;;
43048;SDS011;28673;44.412;11.918;2023-01-08T04:31:55;57.60;;;32.05;;
43048;SDS011;28673;44.412;11.918;2023-01-08T04:34:21;59.40;;;31.48;;
43048;SDS011;28673;44.412;11.918;2023-01-08T04:36:47;70.82;;;34.38;;
43048;SDS011;28673;44.412;11.918;2023-01-08T04:39:13;73.35;;;35.17;;
43048;SDS011;28673;44.412;11.918;2023-01-08T04:41:39;73.32;;;35.55;;
43048;SDS011;28673;44.412;11.918;2023-01-08T04:44:05;60.63;;;32.47;;
43048;SDS011;28673;44.412;11.918;2023-01-08T04:46:30;68.10;;;36.55;;
43048;SDS011;28673;44.412;11.918;2023-01-08T04:48:56;65.60;;;34.05;;
43048;SDS011;28673;44.412;11.918;2023-01-08T04:51:22;73.30;;;32.40;;
43048;SDS011;28673;44.412;11.918;2023-01-08T04:53:50;71.80;;;37.30;;
43048;SDS011;28673;44.412;11.918;2023-01-08T04:56:16;66.05;;;36.72;;
43048;SDS011;28673;44.412;11.918;2023-01-08T04:58:42;65.68;;;34.10;;
43048;SDS011;28673;44.412;11.918;2023-01-08T05:01:21;74.80;;;39.83;;
43048;SDS011;28673;44.412;11.918;2023-01-08T05:03:52;65.45;;;33.97;;
43048;SDS011;28673;44.412;11.918;2023-01-08T05:06:22;65.68;;;34.60;;
43048;SDS011;28673;44.412;11.918;2023-01-08T05:08:49;78.03;;;39.22;;
43048;SDS011;28673;44.412;11.918;2023-01-08T05:11:14;75.38;;;36.58;;
43048;SDS011;28673;44.412;11.918;2023-01-08T05:13:40;66.38;;;35.22;;
43048;SDS011;28673;44.412;11.918;2023-01-08T05:16:06;75.82;;;36.50;;
43048;SDS011;28673;44.412;11.918;2023-01-08T05:18:35;77.25;;;38.38;;
43048;SDS011;28673;44.412;11.918;2023-01-08T05:21:02;70.47;;;36.03;;
43048;SDS011;28673;44.412;11.918;2023-01-08T05:23:29;66.57;;;35.33;;
43048;SDS011;28673;44.412;11.918;2023-01-08T05:25:56;60.95;;;31.42;;
43048;SDS011;28673;44.412;11.918;2023-01-08T05:28:23;62.70;;;33.88;;
43048;SDS011;28673;44.412;11.918;2023-01-08T05:30:49;75.97;;;37.83;;
43048;SDS011;28673;44.412;11.918;2023-01-08T05:33:15;69.25;;;33.15;;
43048;SDS011;28673;44.412;11.918;2023-01-08T05:35:41;70.57;;;35.63;;
43048;SDS011;28673;44.412;11.918;2023-01-08T05:38:06;70.97;;;34.83;;
43048;SDS011;28673;44.412;11.918;2023-01-08T05:40:32;74.18;;;34.35;;
43048;SDS011;28673;44.412;11.918;2023-01-08T05:42:58;73.93;;;34.78;;
43048;SDS011;28673;44.412;11.918;2023-01-08T05:45:24;69.82;;;33.10;;
43048;SDS011;28673;44.412;11.918;2023-01-08T05:47:50;65.93;;;33.10;;
43048;SDS011;28673;44.412;11.918;2023-01-08T05:50:16;64.97;;;32.28;;
43048;SDS011;28673;44.412;11.918;2023-01-08T05:52:42;68.50;;;34.55;;
43048;SDS011;28673;44.412;11.918;2023-01-08T05:55:08;66.00;;;32.08;;
43048;SDS011;28673;44.412;11.918;2023-01-08T05:57:35;61.72;;;32.30;;
43048;SDS011;28673;44.412;11.918;2023-01-08T06:00:01;70.35;;;35.15;;
43048;SDS011;28673;44.412;11.918;2023-01-08T06:02:36;66.78;;;35.60;;
43048;SDS011;28673;44.412;11.918;2023-01-08T06:05:02;64.50;;;32.47;;
43048;SDS011;28673;44.412;11.918;2023-01-08T06:07:29;69.57;;;35.03;;
43048;SDS011;28673;44.412;11.918;2023-01-08T06:09:55;65.55;;;33.17;;
43048;SDS011;28673;44.412;11.918;2023-01-08T06:12:21;64.45;;;33.92;;
43048;SDS011;28673;44.412;11.918;2023-01-08T06:14:47;59.42;;;31.88;;
43048;SDS011;28673;44.412;11.918;2023-01-08T06:17:12;64.75;;;33.58;;
43048;SDS011;28673;44.412;11.918;2023-01-08T06:19:40;71.82;;;32.88;;
43048;SDS011;28673;44.412;11.918;2023-01-08T06:22:06;67.72;;;35.70;;
43048;SDS011;28673;44.412;11.918;2023-01-08T06:24:32;64.30;;;32.47;;
43048;SDS011;28673;44.412;11.918;2023-01-08T06:26:57;64.55;;;32.88;;
43048;SDS011;28673;44.412;11.918;2023-01-08T06:29:23;71.82;;;34.65;;
43048;SDS011;28673;44.412;11.918;2023-01-08T06:31:49;63.90;;;32.72;;
43048;SDS011;28673;44.412;11.918;2023-01-08T06:34:15;61.90;;;32.45;;
43048;SDS011;28673;44.412;11.918;2023-01-08T06:36:41;72.10;;;34.10;;
43048;SDS011;28673;44.412;11.918;2023-01-08T06:39:07;59.03;;;31.10;;
43048;SDS011;28673;44.412;11.918;2023-01-08T06:41:33;69.78;;;32.92;;
43048;SDS011;28673;44.412;11.918;2023-01-08T06:43:59;66.78;;;31.88;;
43048;SDS011;28673;44.412;11.918;2023-01-08T06:46:25;67.72;;;33.58;;
43048;SDS011;28673;44.412;11.918;2023-01-08T06:48:51;65.82;;;34.10;;
43048;SDS011;28673;44.412;11.918;2023-01-08T06:51:17;65.68;;;31.67;;
43048;SDS011;28673;44.412;11.918;2023-01-08T06:53:43;63.90;;;30.20;;
43048;SDS011;28673;44.412;11.918;2023-01-08T06:56:11;63.58;;;32.15;;
43048;SDS011;28673;44.412;11.918;2023-01-08T06:58:37;74.15;;;40.38;;
43048;SDS011;28673;44.412;11.918;2023-01-08T07:01:03;69.40;;;35.97;;
43048;SDS011;28673;44.412;11.918;2023-01-08T07:03:29;66.07;;;33.63;;
43048;SDS011;28673;44.412;11.918;2023-01-08T07:05:55;70.78;;;34.47;;
43048;SDS011;28673;44.412;11.918;2023-01-08T07:08:22;61.90;;;32.25;;
43048;SDS011;28673;44.412;11.918;2023-01-08T07:10:48;65.22;;;35.15;;
43048;SDS011;28673;44.412;11.918;2023-01-08T07:13:14;62.75;;;32.00;;
43048;SDS011;28673;44.412;11.918;2023-01-08T07:15:40;62.00;;;30.38;;
43048;SDS011;28673;44.412;11.918;2023-01-08T07:18:07;66.25;;;33.05;;
43048;SDS011;28673;44.412;11.918;2023-01-08T07:20:34;63.28;;;30.60;;
43048;SDS011;28673;44.412;11.918;2023-01-08T07:23:05;58.78;;;31.23;;
43048;SDS011;28673;44.412;11.918;2023-01-08T07:25:34;54.15;;;28.63;;
43048;SDS011;28673;44.412;11.918;2023-01-08T07:27:59;58.22;;;28.30;;
43048;SDS011;28673;44.412;11.918;2023-01-08T07:30:26;60.10;;;29.67;;
43048;SDS011;28673;44.412;11.918;2023-01-08T07:32:52;49.38;;;26.52;;
43048;SDS011;28673;44.412;11.918;2023-01-08T07:35:21;69.90;;;30.58;;
43048;SDS011;28673;44.412;11.918;2023-01-08T07:37:47;68.35;;;31.05;;
43048;SDS011;28673;44.412;11.918;2023-01-08T07:40:13;72.45;;;31.10;;
43048;SDS011;28673;44.412;11.918;2023-01-08T07:42:38;69.25;;;30.40;;
43048;SDS011;28673;44.412;11.918;2023-01-08T07:45:04;60.00;;;28.50;;
43048;SDS011;28673;44.412;11.918;2023-01-08T07:47:32;65.90;;;30.98;;
43048;SDS011;28673;44.412;11.918;2023-01-08T07:49:58;72.13;;;34.35;;
43048;SDS011;28673;44.412;11.918;2023-01-08T07:52:24;74.50;;;31.92;;
43048;SDS011;28673;44.412;11.918;2023-01-08T07:54:49;60.05;;;29.98;;
43048;SDS011;28673;44.412;11.918;2023-01-08T07:57:15;55.53;;;29.05;;
43048;SDS011;28673;44.412;11.918;2023-01-08T07:59:41;63.33;;;31.13;;
43048;SDS011;28673;44.412;11.918;2023-01-08T08:02:09;61.28;;;30.52;;
43048;SDS011;28673;44.412;11.918;2023-01-08T08:04:35;64.03;;;33.90;;
43048;SDS011;28673;44.412;11.918;2023-01-08T08:07:01;70.10;;;32.38;;
43048;SDS011;28673;44.412;11.918;2023-01-08T08:09:27;66.20;;;32.70;;
43048;SDS011;28673;44.412;11.918;2023-01-08T08:11:53;67.55;;;35.05;;
43048;SDS011;28673;44.412;11.918;2023-01-08T08:14:19;72.28;;;33.00;;
43048;SDS011;28673;44.412;11.918;2023-01-08T08:16:45;84.25;;;38.20;;
43048;SDS011;28673;44.412;11.918;2023-01-08T08:19:11;63.38;;;32.97;;
43048;SDS011;28673;44.412;11.918;2023-01-08T08:21:37;91.95;;;37.83;;
43048;SDS011;28673;44.412;11.918;2023-01-08T08:24:03;69.55;;;33.65;;
43048;SDS011;28673;44.412;11.918;2023-01-08T08:26:29;75.80;;;36.05;;
43048;SDS011;28673;44.412;11.918;2023-01-08T08:28:57;73.95;;;35.45;;
43048;SDS011;28673;44.412;11.918;2023-01-08T08:31:23;72.40;;;33.85;;
43048;SDS011;28673;44.412;11.918;2023-01-08T08:33:48;77.43;;;34.22;;
43048;SDS011;28673;44.412;11.918;2023-01-08T08:36:14;75.60;;;35.75;;
43048;SDS011;28673;44.412;11.918;2023-01-08T08:38:40;74.50;;;34.88;;
43048;SDS011;28673;44.412;11.918;2023-01-08T08:41:06;58.13;;;28.60;;
43048;SDS011;28673;44.412;11.918;2023-01-08T08:43:32;68.70;;;29.90;;
43048;SDS011;28673;44.412;11.918;2023-01-08T08:45:58;69.03;;;34.22;;
43048;SDS011;28673;44.412;11.918;2023-01-08T08:48:23;64.55;;;30.45;;
43048;SDS011;28673;44.412;11.918;2023-01-08T08:50:49;71.45;;;32.72;;
43048;SDS011;28673;44.412;11.918;2023-01-08T08:53:15;71.53;;;34.15;;
43048;SDS011;28673;44.412;11.918;2023-01-08T08:55:41;65.93;;;32.47;;
43048;SDS011;28673;44.412;11.918;2023-01-08T08:58:08;77.63;;;35.28;;
43048;SDS011;28673;44.412;11.918;2023-01-08T09:00:36;70.82;;;34.08;;
43048;SDS011;28673;44.412;11.918;2023-01-08T09:03:02;78.63;;;35.58;;
43048;SDS011;28673;44.412;11.918;2023-01-08T09:05:28;64.03;;;32.97;;
43048;SDS011;28673;44.412;11.918;2023-01-08T09:07:54;70.07;;;33.85;;
43048;SDS011;28673;44.412;11.918;2023-01-08T09:10:21;70.07;;;33.38;;
43048;SDS011;28673;44.412;11.918;2023-01-08T09:12:47;77.68;;;34.72;;
43048;SDS011;28673;44.412;11.918;2023-01-08T09:15:13;80.07;;;34.95;;
43048;SDS011;28673;44.412;11.918;2023-01-08T09:17:39;70.85;;;33.40;;
43048;SDS011;28673;44.412;11.918;2023-01-08T09:20:05;76.32;;;34.42;;
43048;SDS011;28673;44.412;11.918;2023-01-08T09:22:32;81.18;;;36.03;;
43048;SDS011;28673;44.412;11.918;2023-01-08T09:24:57;76.38;;;35.92;;
43048;SDS011;28673;44.412;11.918;2023-01-08T09:27:23;88.85;;;38.92;;
43048;SDS011;28673;44.412;11.918;2023-01-08T09:29:49;81.97;;;38.83;;
43048;SDS011;28673;44.412;11.918;2023-01-08T09:32:15;75.18;;;35.60;;
43048;SDS011;28673;44.412;11.918;2023-01-08T09:34:41;74.13;;;35.83;;
43048;SDS011;28673;44.412;11.918;2023-01-08T09:37:06;80.45;;;37.28;;
43048;SDS011;28673;44.412;11.918;2023-01-08T09:39:32;78.15;;;36.28;;
43048;SDS011;28673;44.412;11.918;2023-01-08T09:42:00;73.43;;;36.92;;
43048;SDS011;28673;44.412;11.918;2023-01-08T09:44:30;74.07;;;37.03;;
43048;SDS011;28673;44.412;11.918;2023-01-08T09:47:01;67.05;;;34.08;;
43048;SDS011;28673;44.412;11.918;2023-01-08T09:49:43;68.40;;;34.00;;
43048;SDS011;28673;44.412;11.918;2023-01-08T09:52:12;77.70;;;37.72;;
43048;SDS011;28673;44.412;11.918;2023-01-08T09:54:40;80.22;;;35.72;;
43048;SDS011;28673;44.412;11.918;2023-01-08T09:57:13;73.03;;;36.85;;
43048;SDS011;28673;44.412;11.918;2023-01-08T09:59:43;75.43;;;38.10;;
43048;SDS011;28673;44.412;11.918;2023-01-08T10:02:16;70.28;;;34.15;;
43048;SDS011;28673;44.412;11.918;2023-01-08T10:04:45;69.18;;;36.55;;
43048;SDS011;28673;44.412;11.918;2023-01-08T10:09:55;62.20;;;32.20;;
43048;SDS011;28673;44.412;11.918;2023-01-08T10:12:26;66.88;;;34.30;;
43048;SDS011;28673;44.412;11.918;2023-01-08T10:15:05;56.53;;;32.20;;
43048;SDS011;28673;44.412;11.918;2023-01-08T10:20:18;54.13;;;28.95;;
43048;SDS011;28673;44.412;11.918;2023-01-08T10:22:48;47.97;;;27.95;;
43048;SDS011;28673;44.412;11.918;2023-01-08T10:25:23;51.97;;;29.85;;
43048;SDS011;28673;44.412;11.918;2023-01-08T10:27:52;51.10;;;27.05;;
43048;SDS011;28673;44.412;11.918;2023-01-08T10:32:56;75.05;;;44.15;;
43048;SDS011;28673;44.412;11.918;2023-01-08T10:35:38;52.55;;;27.33;;
43048;SDS011;28673;44.412;11.918;2023-01-08T10:38:05;52.15;;;27.65;;
43048;SDS011;28673;44.412;11.918;2023-01-08T10:45:43;45.80;;;25.50;;
43048;SDS011;28673;44.412;11.918;2023-01-08T10:48:47;49.40;;;26.80;;
43048;SDS011;28673;44.412;11.918;2023-01-08T10:51:20;54.60;;;28.17;;
43048;SDS011;28673;44.412;11.918;2023-01-08T10:53:51;52.03;;;27.15;;
43048;SDS011;28673;44.412;11.918;2023-01-08T10:56:23;58.08;;;32.45;;
43048;SDS011;28673;44.412;11.918;2023-01-08T10:58:50;58.13;;;38.35;;
43048;SDS011;28673;44.412;11.918;2023-01-08T11:01:18;52.67;;;28.35;;
43048;SDS011;28673;44.412;11.918;2023-01-08T11:03:56;43.63;;;25.38;;
43048;SDS011;28673;44.412;11.918;2023-01-08T11:06:36;46.45;;;27.27;;
43048;SDS011;28673;44.412;11.918;2023-01-08T11:09:28;60.97;;;29.02;;
43048;SDS011;28673;44.412;11.918;2023-01-08T11:11:57;66.00;;;34.95;;
43048;SDS011;28673;44.412;11.918;2023-01-08T11:14:27;51.70;;;29.85;;
43048;SDS011;28673;44.412;11.918;2023-01-08T11:16:59;53.53;;;28.17;;
43048;SDS011;28673;44.412;11.918;2023-01-08T11:19:32;54.85;;;28.48;;
43048;SDS011;28673;44.412;11.918;2023-01-08T11:22:00;50.65;;;28.45;;
43048;SDS011;28673;44.412;11.918;2023-01-08T11:24:37;51.10;;;27.30;;
43048;SDS011;28673;44.412;11.918;2023-01-08T11:35:11;49.47;;;28.15;;
43048;SDS011;28673;44.412;11.918;2023-01-08T11:37:39;42.47;;;27.35;;
43048;SDS011;28673;44.412;11.918;2023-01-08T11:40:14;33.53;;;20.05;;
43048;SDS011;28673;44.412;11.918;2023-01-08T11:48:17;28.52;;;16.60;;
43048;SDS011;28673;44.412;11.918;2023-01-08T11:53:54;25.45;;;14.15;;
43048;SDS011;28673;44.412;11.918;2023-01-08T11:59:45;20.27;;;13.52;;
43048;SDS011;28673;44.412;11.918;2023-01-08T12:05:31;23.33;;;12.52;;
43048;SDS011;28673;44.412;11.918;2023-01-08T12:11:02;20.95;;;12.85;;
43048;SDS011;28673;44.412;11.918;2023-01-08T12:16:45;19.38;;;11.30;;
43048;SDS011;28673;44.412;11.918;2023-01-08T12:19:29;21.02;;;11.40;;
43048;SDS011;28673;44.412;11.918;2023-01-08T12:22:22;12.85;;;7.93;;
43048;SDS011;28673;44.412;11.918;2023-01-08T12:30:41;27.00;;;15.20;;
43048;SDS011;28673;44.412;11.918;2023-01-08T12:35:48;26.95;;;15.18;;
43048;SDS011;28673;44.412;11.918;2023-01-08T12:38:27;25.07;;;15.53;;
43048;SDS011;28673;44.412;11.918;2023-01-08T12:40:58;24.17;;;14.40;;
43048;SDS011;28673;44.412;11.918;2023-01-08T12:46:20;20.73;;;13.93;;
43048;SDS011;28673;44.412;11.918;2023-01-08T12:48:49;25.90;;;15.57;;
43048;SDS011;28673;44.412;11.918;2023-01-08T12:54:12;22.75;;;14.65;;
43048;SDS011;28673;44.412;11.918;2023-01-08T12:57:08;26.90;;;14.77;;
43048;SDS011;28673;44.412;11.918;2023-01-08T13:07:59;33.30;;;15.88;;
43048;SDS011;28673;44.412;11.918;2023-01-08T13:10:49;26.65;;;14.93;;
43048;SDS011;28673;44.412;11.918;2023-01-08T13:13:39;25.92;;;15.98;;
43048;SDS011;28673;44.412;11.918;2023-01-08T13:19:44;26.27;;;16.17;;
43048;SDS011;28673;44.412;11.918;2023-01-08T13:21:51;27.88;;;16.92;;
43048;SDS011;28673;44.412;11.918;2023-01-08T13:29:46;32.75;;;19.85;;
43048;SDS011;28673;44.412;11.918;2023-01-08T13:37:39;27.33;;;17.27;;
43048;SDS011;28673;44.412;11.918;2023-01-08T13:46:04;28.70;;;16.90;;
43048;SDS011;28673;44.412;11.918;2023-01-08T13:48:34;28.88;;;16.67;;
43048;SDS011;28673;44.412;11.918;2023-01-08T13:52:02;29.05;;;15.82;;
43048;SDS011;28673;44.412;11.918;2023-01-08T13:56:43;25.38;;;15.18;;
43048;SDS011;28673;44.412;11.918;2023-01-08T13:59:47;28.55;;;16.50;;
43048;SDS011;28673;44.412;11.918;2023-01-08T14:08:03;26.58;;;17.17;;
43048;SDS011;28673;44.412;11.918;2023-01-08T14:10:29;32.58;;;17.75;;
43048;SDS011;28673;44.412;11.918;2023-01-08T14:13:14;33.63;;;20.23;;
43048;SDS011;28673;44.412;11.918;2023-01-08T14:15:42;39.70;;;23.45;;
43048;SDS011;28673;44.412;11.918;2023-01-08T14:18:10;29.60;;;19.65;;
43048;SDS011;28673;44.412;11.918;2023-01-08T14:20:38;28.80;;;18.20;;
43048;SDS011;28673;44.412;11.918;2023-01-08T14:23:12;32.78;;;19.23;;
43048;SDS011;28673;44.412;11.918;2023-01-08T14:25:47;30.40;;;15.18;;
43048;SDS011;28673;44.412;11.918;2023-01-08T14:28:18;25.05;;;14.38;;
43048;SDS011;28673;44.412;11.918;2023-01-08T14:30:46;30.40;;;17.55;;
43048;SDS011;28673;44.412;11.918;2023-01-08T14:33:13;23.88;;;14.27;;
43048;SDS011;28673;44.412;11.918;2023-01-08T14:35:39;15.00;;;11.13;;
43048;SDS011;28673;44.412;11.918;2023-01-08T14:38:09;12.88;;;7.07;;
43048;SDS011;28673;44.412;11.918;2023-01-08T14:40:39;12.18;;;7.93;;
43048;SDS011;28673;44.412;11.918;2023-01-08T14:43:10;12.43;;;6.57;;
43048;SDS011;28673;44.412;11.918;2023-01-08T14:45:43;9.60;;;6.00;;
43048;SDS011;28673;44.412;11.918;2023-01-08T14:48:24;10.05;;;6.40;;
43048;SDS011;28673;44.412;11.918;2023-01-08T14:51:00;9.15;;;5.32;;
43048;SDS011;28673;44.412;11.918;2023-01-08T14:53:27;8.63;;;5.00;;
43048;SDS011;28673;44.412;11.918;2023-01-08T14:55:54;7.72;;;4.78;;
43048;SDS011;28673;44.412;11.918;2023-01-08T14:58:23;8.93;;;5.85;;
43048;SDS011;28673;44.412;11.918;2023-01-08T15:00:53;18.08;;;12.80;;
43048;SDS011;28673;44.412;11.918;2023-01-08T15:05:58;17.90;;;9.05;;
43048;SDS011;28673;44.412;11.918;2023-01-08T15:08:35;13.13;;;7.82;;
43048;SDS011;28673;44.412;11.918;2023-01-08T15:11:06;11.07;;;6.00;;
43048;SDS011;28673;44.412;11.918;2023-01-08T15:13:43;7.57;;;4.63;;
43048;SDS011;28673;44.412;11.918;2023-01-08T15:16:11;8.90;;;5.40;;
43048;SDS011;28673;44.412;11.918;2023-01-08T15:18:49;12.50;;;4.65;;
43048;SDS011;28673;44.412;11.918;2023-01-08T15:21:24;17.00;;;10.32;;
43048;SDS011;28673;44.412;11.918;2023-01-08T15:23:51;15.07;;;10.23;;
43048;SDS011;28673;44.412;11.918;2023-01-08T15:26:19;24.08;;;12.45;;
43048;SDS011;28673;44.412;11.918;2023-01-08T15:28:59;16.20;;;9.57;;
43048;SDS011;28673;44.412;11.918;2023-01-08T15:34:07;10.35;;;5.95;;
43048;SDS011;28673;44.412;11.918;2023-01-08T15:36:34;10.05;;;4.50;;
43048;SDS011;28673;44.412;11.918;2023-01-08T15:38:59;7.13;;;4.20;;
43048;SDS011;28673;44.412;11.918;2023-01-08T15:41:35;5.47;;;4.88;;
43048;SDS011;28673;44.412;11.918;2023-01-08T15:44:21;5.60;;;4.28;;
43048;SDS011;28673;44.412;11.918;2023-01-08T15:46:47;12.85;;;5.07;;
43048;SDS011;28673;44.412;11.918;2023-01-08T15:49:12;9.27;;;4.70;;
43048;SDS011;28673;44.412;11.918;2023-01-08T15:51:40;8.20;;;5.18;;
43048;SDS011;28673;44.412;11.918;2023-01-08T15:54:13;8.80;;;5.50;;
43048;SDS011;28673;44.412;11.918;2023-01-08T15:56:40;10.67;;;5.27;;
43048;SDS011;28673;44.412;11.918;2023-01-08T15:59:06;7.35;;;4.82;;
43048;SDS011;28673;44.412;11.918;2023-01-08T16:01:32;4.90;;;3.58;;
43048;SDS011;28673;44.412;11.918;2023-01-08T16:03:58;9.07;;;4.70;;
43048;SDS011;28673;44.412;11.918;2023-01-08T16:06:24;8.38;;;4.35;;
43048;SDS011;28673;44.412;11.918;2023-01-08T16:08:50;7.35;;;4.03;;
43048;SDS011;28673;44.412;11.918;2023-01-08T16:11:16;4.80;;;3.80;;
43048;SDS011;28673;44.412;11.918;2023-01-08T16:13:43;5.25;;;4.25;;
43048;SDS011;28673;44.412;11.918;2023-01-08T16:16:13;6.78;;;4.25;;